Time,TemperatureF,DewpointF,PressureIn,WindDirection,WindDirectionDegrees,WindSpeedMPH,WindSpeedGustMPH,Humidity,HourlyPrecipIn,Conditions,Clouds,dailyrainin,SoftwareType,DateUTC
2013-05-22 00:02:00,49.5,48.7,29.86,ESE,112,12.5,-999.0,97,-99.99,,,0.00,Acu-Link.com,2013-05-22 04:02:00,
2013-05-22 00:17:00,49.3,48.8,29.83,ESE,112,15.0,-999.0,98,-99.99,,,0.11,Acu-Link.com,2013-05-22 04:17:00,
2013-05-22 00:32:00,49.3,48.8,29.85,ESE,112,11.4,-999.0,98,-99.99,,,0.16,Acu-Link.com,2013-05-22 04:32:00,
2013-05-22 00:47:00,49.3,49.0,29.81,ESE,112,15.0,-999.0,99,-99.99,,,0.21,Acu-Link.com,2013-05-22 04:47:00,
2013-05-22 01:03:00,49.1,48.8,29.83,ESE,112,9.4,-999.0,99,-99.99,,,0.25,Acu-Link.com,2013-05-22 05:03:00,
2013-05-22 01:18:00,48.9,48.6,29.83,ENE,67,7.3,-999.0,99,-99.99,,,0.30,Acu-Link.com,2013-05-22 05:18:00,
2013-05-22 01:33:00,48.9,48.6,29.80,ESE,112,10.4,-999.0,99,-99.99,,,0.31,Acu-Link.com,2013-05-22 05:33:00,
2013-05-22 01:48:00,48.9,48.6,29.84,East,90,4.7,-999.0,99,-99.99,,,0.32,Acu-Link.com,2013-05-22 05:48:00,
2013-05-22 02:04:00,48.7,48.4,29.83,SE,135,3.7,-999.0,99,-99.99,,,0.33,Acu-Link.com,2013-05-22 06:04:00,
2013-05-22 02:19:00,48.7,48.4,29.82,ESE,112,8.3,-999.0,99,-99.99,,,0.33,Acu-Link.com,2013-05-22 06:19:00,
2013-05-22 02:34:00,48.7,48.2,29.81,ESE,112,10.9,-999.0,98,-99.99,,,0.33,Acu-Link.com,2013-05-22 06:34:00,
2013-05-22 02:49:00,48.7,48.2,29.80,ESE,112,8.9,-999.0,98,-99.99,,,0.34,Acu-Link.com,2013-05-22 06:49:00,
2013-05-22 03:04:00,48.6,48.1,29.78,East,90,6.8,-999.0,98,-99.99,,,0.34,Acu-Link.com,2013-05-22 07:04:00,
2013-05-22 03:19:00,48.6,48.1,29.79,NE,45,6.3,-999.0,98,-99.99,,,0.34,Acu-Link.com,2013-05-22 07:19:00,
2013-05-22 03:34:00,48.6,48.1,29.81,NNW,337,2.7,-999.0,98,-99.99,,,0.34,Acu-Link.com,2013-05-22 07:34:00,
2013-05-22 03:50:00,48.7,48.2,29.83,East,90,1.7,-999.0,98,-99.99,,,0.34,Acu-Link.com,2013-05-22 07:50:00,
2013-05-22 04:07:00,48.7,48.2,29.81,East,90,4.7,-999.0,98,-99.99,,,0.35,Acu-Link.com,2013-05-22 08:07:00,
2013-05-22 04:23:00,48.7,48.2,29.80,ENE,67,5.8,-999.0,98,-99.99,,,0.35,Acu-Link.com,2013-05-22 08:23:00,
2013-05-22 04:39:00,48.7,48.4,29.80,East,90,2.2,-999.0,99,-99.99,,,0.37,Acu-Link.com,2013-05-22 08:39:00,
2013-05-22 04:54:00,48.9,48.6,29.80,East,90,3.7,-999.0,99,-99.99,,,0.40,Acu-Link.com,2013-05-22 08:54:00,
2013-05-22 05:09:00,48.9,48.6,29.78,ESE,112,0.0,-999.0,99,-99.99,,,0.44,Acu-Link.com,2013-05-22 09:09:00,
2013-05-22 05:24:00,48.9,48.6,29.79,SE,135,5.3,-999.0,99,-99.99,,,0.48,Acu-Link.com,2013-05-22 09:24:00,
2013-05-22 05:39:00,49.1,48.8,29.76,ESE,112,9.9,-999.0,99,-99.99,,,0.54,Acu-Link.com,2013-05-22 09:39:00,
2013-05-22 05:54:00,49.1,48.8,29.76,ESE,112,8.9,-999.0,99,-99.99,,,0.55,Acu-Link.com,2013-05-22 09:54:00,
2013-05-22 06:09:00,49.1,48.8,29.76,ESE,112,13.0,-999.0,99,-99.99,,,0.55,Acu-Link.com,2013-05-22 10:09:00,
2013-05-22 06:24:00,49.1,48.8,29.77,East,90,4.7,-999.0,99,-99.99,,,0.56,Acu-Link.com,2013-05-22 10:24:00,
2013-05-22 06:39:00,49.1,48.8,29.78,SE,135,5.8,-999.0,99,-99.99,,,0.56,Acu-Link.com,2013-05-22 10:39:00,
2013-05-22 06:54:00,49.1,48.8,29.79,ESE,112,5.8,-999.0,99,-99.99,,,0.56,Acu-Link.com,2013-05-22 10:54:00,
2013-05-22 07:10:00,49.1,48.8,29.78,SE,135,6.8,-999.0,99,-99.99,,,0.56,Acu-Link.com,2013-05-22 11:10:00,
2013-05-22 07:25:00,49.1,48.8,29.78,ESE,112,4.7,-999.0,99,-99.99,,,0.56,Acu-Link.com,2013-05-22 11:25:00,
2013-05-22 07:40:00,49.3,48.8,29.79,ESE,112,5.3,-999.0,98,-99.99,,,0.56,Acu-Link.com,2013-05-22 11:40:00,
2013-05-22 07:56:00,49.3,48.8,29.79,East,90,4.7,-999.0,98,-99.99,,,0.56,Acu-Link.com,2013-05-22 11:56:00,
2013-05-22 08:11:00,49.3,48.8,29.80,East,90,3.2,-999.0,98,-99.99,,,0.56,Acu-Link.com,2013-05-22 12:11:00,
2013-05-22 08:26:00,49.5,49.0,29.79,ENE,67,3.2,-999.0,98,-99.99,,,0.56,Acu-Link.com,2013-05-22 12:26:00,
2013-05-22 08:42:00,49.6,49.1,29.78,SE,135,4.7,-999.0,98,-99.99,,,0.56,Acu-Link.com,2013-05-22 12:42:00,
2013-05-22 08:57:00,49.8,49.3,29.79,NE,45,4.7,-999.0,98,-99.99,,,0.56,Acu-Link.com,2013-05-22 12:57:00,
2013-05-22 09:12:00,49.6,49.1,29.80,East,90,3.7,-999.0,98,-99.99,,,0.56,Acu-Link.com,2013-05-22 13:12:00,
2013-05-22 09:28:00,49.6,49.1,29.79,East,90,4.2,-999.0,98,-99.99,,,0.56,Acu-Link.com,2013-05-22 13:28:00,
2013-05-22 09:43:00,50.2,49.7,29.79,ESE,112,5.3,-999.0,98,-99.99,,,0.56,Acu-Link.com,2013-05-22 13:43:00,
2013-05-22 09:58:00,50.2,49.7,29.79,ESE,112,5.8,-999.0,98,-99.99,,,0.56,Acu-Link.com,2013-05-22 13:58:00,
2013-05-22 10:13:00,50.2,49.4,29.79,ENE,67,7.3,-999.0,97,-99.99,,,0.56,Acu-Link.com,2013-05-22 14:13:00,
2013-05-22 10:28:00,51.4,50.6,29.79,ESE,112,5.3,-999.0,97,-99.99,,,0.56,Acu-Link.com,2013-05-22 14:28:00,
2013-05-22 10:44:00,52.9,50.9,29.78,ESE,112,6.3,-999.0,93,-99.99,,,0.56,Acu-Link.com,2013-05-22 14:44:00,
2013-05-22 10:59:00,53.1,50.8,29.80,NE,45,6.3,-999.0,92,-99.99,,,0.56,Acu-Link.com,2013-05-22 14:59:00,
2013-05-22 11:14:00,53.2,50.6,29.81,East,90,4.7,-999.0,91,-99.99,,,0.56,Acu-Link.com,2013-05-22 15:14:00,
2013-05-22 11:29:00,54.3,51.4,29.81,ESE,112,4.2,-999.0,90,-99.99,,,0.56,Acu-Link.com,2013-05-22 15:29:00,
2013-05-22 11:45:00,54.9,51.4,29.80,ESE,112,4.7,-999.0,88,-99.99,,,0.56,Acu-Link.com,2013-05-22 15:45:00,
2013-05-22 12:00:00,54.1,50.9,29.80,SE,135,4.7,-999.0,89,-99.99,,,0.56,Acu-Link.com,2013-05-22 16:00:00,
2013-05-22 12:15:00,52.7,50.4,29.81,SSE,157,5.3,-999.0,92,-99.99,,,0.56,Acu-Link.com,2013-05-22 16:15:00,
2013-05-22 12:31:00,53.8,50.9,29.80,SE,135,5.8,-999.0,90,-99.99,,,0.56,Acu-Link.com,2013-05-22 16:31:00,
2013-05-22 12:46:00,54.1,50.9,29.80,SE,135,4.7,-999.0,89,-99.99,,,0.56,Acu-Link.com,2013-05-22 16:46:00,
2013-05-22 13:02:00,57.4,52.3,29.80,SE,135,2.7,-999.0,83,-99.99,,,0.56,Acu-Link.com,2013-05-22 17:02:00,
2013-05-22 13:17:00,55.2,51.4,29.80,ESE,112,4.7,-999.0,87,-99.99,,,0.56,Acu-Link.com,2013-05-22 17:17:00,
2013-05-22 13:32:00,54.7,51.5,29.80,SE,135,5.3,-999.0,89,-99.99,,,0.56,Acu-Link.com,2013-05-22 17:32:00,
2013-05-22 13:48:00,53.2,50.6,29.79,South,180,5.3,-999.0,91,-99.99,,,0.56,Acu-Link.com,2013-05-22 17:48:00,
2013-05-22 14:03:00,53.4,50.8,29.79,SSE,157,6.3,-999.0,91,-99.99,,,0.56,Acu-Link.com,2013-05-22 18:03:00,
2013-05-22 14:18:00,53.4,50.2,29.79,SSE,157,6.3,-999.0,89,-99.99,,,0.56,Acu-Link.com,2013-05-22 18:18:00,
2013-05-22 14:33:00,52.5,49.9,29.79,SSE,157,8.3,-999.0,91,-99.99,,,0.56,Acu-Link.com,2013-05-22 18:33:00,
2013-05-22 14:48:00,52.2,49.7,29.79,SSE,157,7.8,-999.0,91,-99.99,,,0.56,Acu-Link.com,2013-05-22 18:48:00,
2013-05-22 15:03:00,51.8,49.6,29.79,SSE,157,6.8,-999.0,92,-99.99,,,0.56,Acu-Link.com,2013-05-22 19:03:00,
2013-05-22 15:18:00,51.3,49.3,29.79,SSE,157,10.9,-999.0,93,-99.99,,,0.56,Acu-Link.com,2013-05-22 19:18:00,
2013-05-22 15:33:00,51.3,49.3,29.79,SE,135,9.4,-999.0,93,-99.99,,,0.56,Acu-Link.com,2013-05-22 19:33:00,
2013-05-22 15:48:00,51.4,49.4,29.79,SSE,157,8.9,-999.0,93,-99.99,,,0.56,Acu-Link.com,2013-05-22 19:48:00,
2013-05-22 16:04:00,51.1,49.1,29.79,SSE,157,8.3,-999.0,93,-99.99,,,0.56,Acu-Link.com,2013-05-22 20:04:00,
2013-05-22 16:19:00,50.9,48.9,29.80,SE,135,9.9,-999.0,93,-99.99,,,0.56,Acu-Link.com,2013-05-22 20:19:00,
2013-05-22 16:34:00,51.1,49.1,29.79,SSE,157,9.9,-999.0,93,-99.99,,,0.56,Acu-Link.com,2013-05-22 20:34:00,
2013-05-22 16:49:00,50.7,48.8,29.79,SE,135,11.4,-999.0,93,-99.99,,,0.56,Acu-Link.com,2013-05-22 20:49:00,
2013-05-22 17:04:00,50.9,48.9,29.79,SSE,157,9.4,-999.0,93,-99.99,,,0.56,Acu-Link.com,2013-05-22 21:04:00,
2013-05-22 17:19:00,51.1,49.1,29.80,SE,135,8.3,-999.0,93,-99.99,,,0.56,Acu-Link.com,2013-05-22 21:19:00,
2013-05-22 17:34:00,50.5,48.8,29.80,SE,135,8.3,-999.0,94,-99.99,,,0.56,Acu-Link.com,2013-05-22 21:34:00,
2013-05-22 17:49:00,50.5,48.8,29.80,SSE,157,8.9,-999.0,94,-99.99,,,0.56,Acu-Link.com,2013-05-22 21:49:00,
2013-05-22 18:04:00,50.4,48.7,29.79,SSE,157,8.3,-999.0,94,-99.99,,,0.56,Acu-Link.com,2013-05-22 22:04:00,
2013-05-22 18:19:00,50.2,48.5,29.80,SE,135,9.4,-999.0,94,-99.99,,,0.56,Acu-Link.com,2013-05-22 22:19:00,
2013-05-22 18:34:00,50.0,48.3,29.81,SE,135,9.4,-999.0,94,-99.99,,,0.56,Acu-Link.com,2013-05-22 22:34:00,
2013-05-22 18:50:00,49.8,48.4,29.79,SE,135,10.4,-999.0,95,-99.99,,,0.56,Acu-Link.com,2013-05-22 22:50:00,
2013-05-22 19:05:00,49.6,48.5,29.81,SE,135,6.8,-999.0,96,-99.99,,,0.56,Acu-Link.com,2013-05-22 23:05:00,
2013-05-22 19:20:00,49.5,48.4,29.81,SSE,157,9.4,-999.0,96,-99.99,,,0.56,Acu-Link.com,2013-05-22 23:20:00,
2013-05-22 19:35:00,49.5,48.4,29.81,ESE,112,8.3,-999.0,96,-99.99,,,0.56,Acu-Link.com,2013-05-22 23:35:00,
2013-05-22 19:50:00,49.5,48.4,29.82,SSE,157,7.3,-999.0,96,-99.99,,,0.56,Acu-Link.com,2013-05-22 23:50:00,
2013-05-22 20:05:00,49.6,48.5,29.84,SE,135,4.7,-999.0,96,-99.99,,,0.56,Acu-Link.com,2013-05-23 00:05:00,
2013-05-22 20:20:00,49.6,48.5,29.83,SE,135,7.3,-999.0,96,-99.99,,,0.56,Acu-Link.com,2013-05-23 00:20:00,
2013-05-22 20:35:00,49.6,48.8,29.81,ESE,112,8.3,-999.0,97,-99.99,,,0.56,Acu-Link.com,2013-05-23 00:35:00,
2013-05-22 20:50:00,49.5,48.7,29.81,ESE,112,9.9,-999.0,97,-99.99,,,0.61,Acu-Link.com,2013-05-23 00:50:00,
2013-05-22 21:05:00,49.3,48.8,29.81,ESE,112,10.4,-999.0,98,-99.99,,,0.65,Acu-Link.com,2013-05-23 01:05:00,
2013-05-22 21:20:00,49.3,48.8,29.84,ESE,112,7.3,-999.0,98,-99.99,,,0.66,Acu-Link.com,2013-05-23 01:20:00,
2013-05-22 21:36:00,49.3,48.8,29.82,ESE,112,6.8,-999.0,98,-99.99,,,0.66,Acu-Link.com,2013-05-23 01:36:00,
2013-05-22 21:51:00,49.3,48.8,29.81,ESE,112,6.8,-999.0,98,-99.99,,,0.66,Acu-Link.com,2013-05-23 01:51:00,
2013-05-22 22:06:00,49.3,48.8,29.83,SSE,157,4.2,-999.0,98,-99.99,,,0.66,Acu-Link.com,2013-05-23 02:06:00,
2013-05-22 22:21:00,49.3,48.8,29.82,SSE,157,5.8,-999.0,98,-99.99,,,0.66,Acu-Link.com,2013-05-23 02:21:00,
2013-05-22 22:36:00,49.5,49.0,29.82,SE,135,6.3,-999.0,98,-99.99,,,0.66,Acu-Link.com,2013-05-23 02:36:00,
2013-05-22 22:51:00,49.3,48.8,29.83,SE,135,4.7,-999.0,98,-99.99,,,0.66,Acu-Link.com,2013-05-23 02:51:00,
2013-05-22 23:07:00,49.3,48.5,29.82,SSE,157,6.3,-999.0,97,-99.99,,,0.66,Acu-Link.com,2013-05-23 03:07:00,
2013-05-22 23:22:00,49.1,48.3,29.81,SSE,157,8.3,-999.0,97,-99.99,,,0.66,Acu-Link.com,2013-05-23 03:22:00,
2013-05-22 23:37:00,48.9,48.1,29.81,SE,135,5.8,-999.0,97,-99.99,,,0.66,Acu-Link.com,2013-05-23 03:37:00,
2013-05-22 23:52:00,48.9,48.4,29.80,ESE,112,8.3,-999.0,98,-99.99,,,0.66,Acu-Link.com,2013-05-23 03:52:00,